createdAt,value
2022-09-13T00:00:02.504Z,55.02
2022-09-13T00:02:34.563Z,55.07
2022-09-13T00:05:04.346Z,53.15
2022-09-13T00:07:36.393Z,52.11
2022-09-13T00:10:07.738Z,54.53
2022-09-13T00:12:38.568Z,55.45
2022-09-13T00:15:11.375Z,55.33
2022-09-13T00:17:40.208Z,54.87
2022-09-13T00:20:10.237Z,54.57
2022-09-13T00:22:39.112Z,54.50
2022-09-13T00:25:09.019Z,54.61
2022-09-13T00:27:39.275Z,55.11
2022-09-13T00:30:09.954Z,55.48
2022-09-13T00:32:42.067Z,54.82
2022-09-13T00:35:13.153Z,55.36
2022-09-13T00:37:45.112Z,54.34
2022-09-13T00:40:14.712Z,54.34
2022-09-13T00:42:44.896Z,56.43
2022-09-13T00:45:19.156Z,56.83
2022-09-13T00:47:54.151Z,56.06
2022-09-13T00:50:43.705Z,56.77
2022-09-13T00:53:26.165Z,57.18
2022-09-13T00:56:07.168Z,56.24
2022-09-13T00:58:44.825Z,56.36
2022-09-13T01:01:19.875Z,55.88
2022-09-13T01:03:52.782Z,54.88
2022-09-13T01:06:25.997Z,54.99
2022-09-13T01:08:55.170Z,54.87
2022-09-13T01:11:40.362Z,54.49
2022-09-13T01:14:10.900Z,54.77
2022-09-13T01:16:44.825Z,55.33
2022-09-13T01:19:17.561Z,53.79
2022-09-13T01:22:24.477Z,53.23
2022-09-13T01:25:12.634Z,54.53
2022-09-13T01:27:47.632Z,53.82
2022-09-13T01:30:22.798Z,54.03
2022-09-13T01:33:10.598Z,53.54
2022-09-13T01:35:44.717Z,53.48
2022-09-13T01:38:35.579Z,54.44
2022-09-13T01:41:16.875Z,54.09
2022-09-13T01:43:58.744Z,54.08
2022-09-13T01:46:53.850Z,54.53
2022-09-13T01:49:33.887Z,55.16
2022-09-13T01:52:24.576Z,53.67
2022-09-13T01:55:06.185Z,55.15
2022-09-13T01:57:47.010Z,54.88
2022-09-13T02:00:18.038Z,55.51
2022-09-13T02:02:52.147Z,53.51
2022-09-13T02:05:31.378Z,54.98
2022-09-13T02:08:06.534Z,54.08
2022-09-13T02:11:00.890Z,54.76
2022-09-13T02:13:36.280Z,54.49
2022-09-13T02:16:17.311Z,54.94
2022-09-13T02:18:49.884Z,54.55
2022-09-13T02:21:22.930Z,55.35
2022-09-13T02:23:53.680Z,56.00
2022-09-13T02:26:23.036Z,56.09
2022-09-13T02:28:53.514Z,55.58
2022-09-13T02:32:06.639Z,55.88
2022-09-13T02:34:41.975Z,55.53
2022-09-13T02:37:11.667Z,54.78
2022-09-13T02:39:44.979Z,53.92
2022-09-13T02:42:18.180Z,54.48
2022-09-13T02:44:49.820Z,55.15
2022-09-13T02:47:43.063Z,54.52
2022-09-13T02:50:34.511Z,53.81
2022-09-13T02:53:13.723Z,55.82
2022-09-13T02:56:18.591Z,55.09
2022-09-13T02:58:53.207Z,55.97
2022-09-13T03:01:21.885Z,55.46
2022-09-13T03:03:54.038Z,56.10
2022-09-13T03:06:22.891Z,54.33
2022-09-13T03:08:51.141Z,54.84
2022-09-13T03:11:51.742Z,56.03
2022-09-13T03:14:34.570Z,55.76
2022-09-13T03:17:15.953Z,55.34
2022-09-13T03:20:13.551Z,54.92
2022-09-13T03:22:47.270Z,55.13
2022-09-13T03:25:36.707Z,53.37
2022-09-13T03:28:19.523Z,53.24
2022-09-13T03:30:55.761Z,55.42
2022-09-13T03:33:31.916Z,55.82
2022-09-13T03:36:06.458Z,55.77
2022-09-13T03:38:46.282Z,55.80
2022-09-13T03:41:18.982Z,56.56
2022-09-13T03:44:16.444Z,55.46
2022-09-13T03:46:52.194Z,55.79
2022-09-13T03:49:23.337Z,56.49
2022-09-13T03:51:54.220Z,53.97
2022-09-13T03:54:32.469Z,53.24
2022-09-13T03:57:12.405Z,55.44
2022-09-13T03:59:44.814Z,56.52
2022-09-13T04:02:13.378Z,56.46
2022-09-13T04:04:43.595Z,55.07
2022-09-13T04:07:14.140Z,54.48
2022-09-13T04:09:42.606Z,54.35
2022-09-13T04:12:11.188Z,54.38
2022-09-13T04:14:39.259Z,56.45
2022-09-13T04:17:07.832Z,57.76
2022-09-13T04:19:35.584Z,57.98
2022-09-13T04:22:03.495Z,58.14
2022-09-13T04:24:31.850Z,57.41
2022-09-13T04:26:59.713Z,57.56
2022-09-13T04:29:27.653Z,58.02
2022-09-13T04:31:56.239Z,56.97
2022-09-13T04:34:30.191Z,57.30
2022-09-13T04:36:58.560Z,57.89
2022-09-13T04:39:26.318Z,57.38
2022-09-13T04:41:55.209Z,57.25
2022-09-13T04:44:24.620Z,57.35
2022-09-13T04:46:52.942Z,56.84
2022-09-13T04:49:22.095Z,57.17
2022-09-13T04:51:50.991Z,57.31
2022-09-13T04:54:18.817Z,57.64
2022-09-13T04:56:47.331Z,57.21
2022-09-13T04:59:15.869Z,57.57
2022-09-13T05:01:43.687Z,56.74
2022-09-13T05:04:12.397Z,57.48
2022-09-13T05:06:40.834Z,58.27
2022-09-13T05:09:13.701Z,58.37
2022-09-13T05:11:42.807Z,58.25
2022-09-13T05:14:11.579Z,57.88
2022-09-13T05:16:39.699Z,57.08
2022-09-13T05:19:08.682Z,56.19
2022-09-13T05:21:36.696Z,56.14
2022-09-13T05:24:04.716Z,56.45
2022-09-13T05:26:33.056Z,57.16
2022-09-13T05:29:01.444Z,57.46
2022-09-13T05:31:31.955Z,56.66
2022-09-13T05:34:01.704Z,56.05
2022-09-13T05:36:33.397Z,55.50
2022-09-13T05:39:26.375Z,55.34
2022-09-13T05:41:49.788Z,55.60
2022-09-13T05:44:18.345Z,55.11
2022-09-13T05:46:49.799Z,54.68
2022-09-13T05:49:18.703Z,54.10
2022-09-13T05:51:48.850Z,54.19
2022-09-13T05:54:17.338Z,54.50
2022-09-13T05:56:45.422Z,54.78
2022-09-13T05:59:14.447Z,54.95
2022-09-13T06:01:45.455Z,53.89
2022-09-13T06:04:14.751Z,53.56
2022-09-13T06:06:42.596Z,53.24
2022-09-13T06:09:12.090Z,52.66
2022-09-13T06:11:40.385Z,52.75
2022-09-13T06:14:08.472Z,52.06
2022-09-13T06:16:36.975Z,51.85
2022-09-13T06:19:05.243Z,51.70
2022-09-13T06:21:33.243Z,51.54
2022-09-13T06:24:01.141Z,51.60
2022-09-13T06:26:29.431Z,51.08
2022-09-13T06:29:00.102Z,50.47
2022-09-13T06:31:29.253Z,50.70
2022-09-13T06:34:09.250Z,50.19
2022-09-13T06:37:04.300Z,50.02
2022-09-13T06:39:50.034Z,49.73
2022-09-13T06:42:51.646Z,48.92
2022-09-13T06:45:24.414Z,48.53
2022-09-13T06:47:58.210Z,46.99
2022-09-13T06:51:03.539Z,46.21
2022-09-13T06:53:40.975Z,45.56
2022-09-13T06:56:22.200Z,45.07
2022-09-13T06:58:53.071Z,44.23
2022-09-13T07:01:36.073Z,43.89
2022-09-13T07:04:10.986Z,44.30
2022-09-13T07:06:43.931Z,43.32
2022-09-13T07:09:19.493Z,42.19
2022-09-13T07:11:52.519Z,42.03
2022-09-13T07:14:26.881Z,41.76
2022-09-13T07:16:55.724Z,41.36
2022-09-13T07:19:28.799Z,41.57
2022-09-13T07:21:57.321Z,41.51
2022-09-13T07:24:25.571Z,42.34
2022-09-13T07:26:54.222Z,41.52
2022-09-13T07:29:26.662Z,41.09
2022-09-13T07:31:56.008Z,41.36
2022-09-13T07:34:26.743Z,41.77
2022-09-13T07:36:55.265Z,41.41
2022-09-13T07:39:24.419Z,41.24
2022-09-13T07:41:54.017Z,40.94
2022-09-13T07:44:23.115Z,40.55
2022-09-13T07:46:51.534Z,40.76
2022-09-13T07:49:20.653Z,40.61
2022-09-13T07:51:51.663Z,40.23
2022-09-13T07:54:26.747Z,40.18
2022-09-13T07:56:58.054Z,40.67
2022-09-13T07:59:30.082Z,40.85
2022-09-13T08:02:10.736Z,40.88
2022-09-13T08:04:46.925Z,41.07
2022-09-13T08:07:17.905Z,40.29
2022-09-13T08:09:56.968Z,40.27
2022-09-13T08:12:25.088Z,40.28
2022-09-13T08:14:53.681Z,40.72
2022-09-13T08:17:40.922Z,40.40
2022-09-13T08:20:37.263Z,39.76
2022-09-13T08:23:22.399Z,40.52
2022-09-13T08:26:00.116Z,40.61
2022-09-13T08:28:38.797Z,40.63
2022-09-13T08:31:23.469Z,39.96
2022-09-13T08:34:58.523Z,39.48
2022-09-13T08:38:14.098Z,39.96
2022-09-13T08:40:46.414Z,39.18
2022-09-13T08:43:56.519Z,38.98
2022-09-13T08:46:51.252Z,38.10
2022-09-13T08:49:29.392Z,37.84
2022-09-13T08:52:12.104Z,37.16
2022-09-13T08:54:40.382Z,36.88
2022-09-13T08:57:15.509Z,37.00
2022-09-13T08:59:58.502Z,36.60
2022-09-13T09:02:51.727Z,35.56
2022-09-13T09:05:29.230Z,34.89
2022-09-13T09:08:00.403Z,36.08
2022-09-13T09:10:40.896Z,36.09
2022-09-13T09:13:45.461Z,35.61
2022-09-13T09:16:22.602Z,34.89
2022-09-13T09:18:50.430Z,35.47
2022-09-13T09:21:19.292Z,35.48
2022-09-13T09:23:52.237Z,35.20
2022-09-13T09:26:29.347Z,35.55
2022-09-13T09:29:00.102Z,35.33
2022-09-13T09:57:00.176Z,30.61
2022-09-13T09:59:34.227Z,30.61
2022-09-13T10:02:14.573Z,31.85
2022-09-13T10:04:56.078Z,30.84
2022-09-13T10:07:35.933Z,30.62
2022-09-13T10:10:10.330Z,30.85
2022-09-13T10:12:40.222Z,30.39
2022-09-13T10:15:34.565Z,30.58
2022-09-13T10:37:11.596Z,29.37
2022-09-13T11:09:24.179Z,29.75
2022-09-13T11:12:19.174Z,29.28
2022-09-13T11:15:13.702Z,28.78
2022-09-13T11:24:18.196Z,29.06
2022-09-13T11:27:04.844Z,28.41
2022-09-13T11:29:44.645Z,27.73
2022-09-13T11:32:59.189Z,27.87
2022-09-13T11:59:34.968Z,27.41
2022-09-13T12:02:14.108Z,27.19
2022-09-13T12:16:58.736Z,25.63
2022-09-13T13:54:03.358Z,26.40
2022-09-13T13:57:58.804Z,26.20
2022-09-13T14:05:01.577Z,25.51
2022-09-13T14:20:15.052Z,26.02
2022-09-13T14:45:45.190Z,26.68
2022-09-13T14:48:56.356Z,26.72
2022-09-13T15:13:11.405Z,27.58
2022-09-13T15:15:43.439Z,28.37
2022-09-13T15:18:20.442Z,28.47
2022-09-13T15:20:56.979Z,28.10
2022-09-13T15:23:38.915Z,28.13
2022-09-13T15:26:10.201Z,28.03
2022-09-13T15:28:41.861Z,28.17
2022-09-13T15:31:11.306Z,28.31
2022-09-13T15:33:43.482Z,28.73
2022-09-13T15:36:27.700Z,28.92
2022-09-13T15:39:06.116Z,28.92
2022-09-13T15:41:38.408Z,28.42
2022-09-13T15:44:09.731Z,28.96
2022-09-13T15:46:49.794Z,29.61
2022-09-13T15:49:20.489Z,29.16
2022-09-13T15:51:59.084Z,29.58
2022-09-13T15:54:39.419Z,29.37
2022-09-13T15:57:10.421Z,29.20
2022-09-13T15:59:38.594Z,29.92
2022-09-13T16:02:31.426Z,30.22
2022-09-13T16:05:02.913Z,30.21
2022-09-13T16:07:31.117Z,30.60
2022-09-13T16:09:59.787Z,30.54
2022-09-13T16:12:27.871Z,30.67
2022-09-13T16:14:55.778Z,30.69
2022-09-13T16:17:26.172Z,30.80
2022-09-13T16:19:54.887Z,30.62
2022-09-13T16:22:22.967Z,30.80
2022-09-13T16:24:50.821Z,31.44
2022-09-13T16:27:19.929Z,31.89
2022-09-13T16:29:47.853Z,34.79
2022-09-13T16:32:15.770Z,33.43
2022-09-13T16:34:44.273Z,33.25
2022-09-13T16:37:17.533Z,33.22
2022-09-13T16:39:46.470Z,33.91
2022-09-13T16:42:17.803Z,34.04
2022-09-13T16:44:46.567Z,33.63
2022-09-13T16:47:14.721Z,33.22
2022-09-13T16:49:42.778Z,33.19
2022-09-13T16:52:11.056Z,34.20
2022-09-13T16:54:38.961Z,34.32
2022-09-13T16:57:10.081Z,34.97
2022-09-13T16:59:38.244Z,35.49
2022-09-13T17:02:06.040Z,36.50
2022-09-13T17:04:34.425Z,37.53
2022-09-13T17:07:05.102Z,37.26
2022-09-13T17:09:34.635Z,36.26
2022-09-13T17:12:04.273Z,35.80
2022-09-13T17:14:33.502Z,35.64
2022-09-13T17:17:01.940Z,35.75
2022-09-13T17:19:35.834Z,36.50
2022-09-13T17:22:06.259Z,38.43
2022-09-13T17:24:34.567Z,38.76
2022-09-13T17:27:02.511Z,37.53
2022-09-13T17:29:31.554Z,37.04
2022-09-13T17:32:00.765Z,36.90
2022-09-13T17:34:31.089Z,38.05
2022-09-13T17:36:59.901Z,39.88
2022-09-13T17:39:27.769Z,40.77
2022-09-13T17:41:55.667Z,41.08
2022-09-13T17:44:24.222Z,41.29
2022-09-13T17:46:52.295Z,41.54
2022-09-13T17:49:20.334Z,42.78
2022-09-13T17:51:50.371Z,42.92
2022-09-13T17:54:18.207Z,42.03
2022-09-13T17:56:47.879Z,41.88
2022-09-13T17:59:19.622Z,42.98
2022-09-13T18:01:53.134Z,43.19
2022-09-13T18:04:24.806Z,43.59
2022-09-13T18:06:53.761Z,43.87
2022-09-13T18:09:22.103Z,44.43
2022-09-13T18:11:51.425Z,44.53
2022-09-13T18:14:42.338Z,44.94
2022-09-13T18:17:13.702Z,45.15
2022-09-13T18:19:46.654Z,45.95
2022-09-13T18:22:15.304Z,46.18
2022-09-13T18:24:43.354Z,46.83
2022-09-13T18:27:11.475Z,46.57
2022-09-13T18:29:43.069Z,45.97
2022-09-13T18:32:11.234Z,45.86
2022-09-13T18:34:42.631Z,45.31
2022-09-13T18:37:11.372Z,45.64
2022-09-13T18:39:44.724Z,45.85
2022-09-13T18:42:13.417Z,46.62
2022-09-13T18:44:42.752Z,46.30
2022-09-13T18:47:13.187Z,47.71
2022-09-13T18:49:41.509Z,47.59
2022-09-13T18:52:14.483Z,48.13
2022-09-13T18:54:42.510Z,47.74
2022-09-13T18:57:11.316Z,47.22
2022-09-13T18:59:39.649Z,47.71
2022-09-13T19:02:09.338Z,47.76
2022-09-13T19:04:38.970Z,48.42
2022-09-13T19:07:07.473Z,48.23
2022-09-13T19:09:36.063Z,48.01
2022-09-13T19:12:05.332Z,47.97
2022-09-13T19:14:33.579Z,48.62
2022-09-13T19:17:01.969Z,47.80
2022-09-13T19:19:32.267Z,48.21
2022-09-13T19:22:00.978Z,48.71
2022-09-13T19:24:33.054Z,48.77
2022-09-13T19:27:02.948Z,48.73
2022-09-13T19:29:31.731Z,49.64
2022-09-13T19:32:01.384Z,49.42
2022-09-13T19:34:29.663Z,49.37
2022-09-13T19:36:59.311Z,50.49
2022-09-13T19:39:30.622Z,51.11
2022-09-13T19:42:00.929Z,49.30
2022-09-13T19:44:30.077Z,49.72
2022-09-13T19:47:44.833Z,50.62
2022-09-13T19:49:50.213Z,50.72
2022-09-13T19:52:18.654Z,49.73
2022-09-13T19:54:47.140Z,50.99
2022-09-13T19:57:15.697Z,50.57
2022-09-13T19:59:45.772Z,50.40
2022-09-13T20:02:15.351Z,51.24
2022-09-13T20:04:44.050Z,50.83
2022-09-13T20:07:15.277Z,51.94
2022-09-13T20:09:47.552Z,51.77
2022-09-13T20:12:15.661Z,51.61
2022-09-13T20:14:46.194Z,51.90
2022-09-13T20:17:16.359Z,51.60
2022-09-13T20:19:49.843Z,51.55
2022-09-13T20:22:22.821Z,52.14
2022-09-13T20:24:52.682Z,51.25
2022-09-13T20:27:26.815Z,51.78
2022-09-13T20:30:05.205Z,52.64
2022-09-13T20:32:38.053Z,52.85
2022-09-13T20:35:07.772Z,51.79
2022-09-13T20:37:39.177Z,52.88
2022-09-13T20:40:10.639Z,51.78
2022-09-13T20:42:40.238Z,50.26
2022-09-13T20:45:10.239Z,50.60
2022-09-13T20:47:38.526Z,50.47
2022-09-13T20:50:07.792Z,49.46
2022-09-13T20:52:36.914Z,50.46
2022-09-13T20:55:08.466Z,49.76
2022-09-13T20:57:36.941Z,49.86
2022-09-13T21:00:06.185Z,50.95
2022-09-13T21:02:37.639Z,49.96
2022-09-13T21:05:06.503Z,50.92
2022-09-13T21:07:54.409Z,50.71
2022-09-13T21:10:24.672Z,51.47
2022-09-13T21:12:53.426Z,51.42
2022-09-13T21:15:22.473Z,51.57
2022-09-13T21:17:50.531Z,51.97
2022-09-13T21:20:19.905Z,51.88
2022-09-13T21:22:48.325Z,51.57
2022-09-13T21:25:16.416Z,51.43
2022-09-13T21:27:47.046Z,51.36
2022-09-13T21:30:15.935Z,50.98
2022-09-13T21:32:44.385Z,50.38
2022-09-13T21:35:14.963Z,51.90
2022-09-13T21:37:43.154Z,50.45
2022-09-13T21:40:11.765Z,50.59
2022-09-13T21:42:42.121Z,51.47
2022-09-13T21:45:10.193Z,52.64
2022-09-13T21:47:38.052Z,52.46
2022-09-13T21:50:07.297Z,51.96
2022-09-13T21:52:37.135Z,51.25
2022-09-13T21:55:05.991Z,51.12
2022-09-13T21:57:34.464Z,51.00
2022-09-13T22:00:03.019Z,51.82
2022-09-13T22:02:45.906Z,51.32
2022-09-13T22:05:14.919Z,51.28
2022-09-13T22:07:43.326Z,51.35
2022-09-13T22:10:34.199Z,51.89
2022-09-13T22:13:08.346Z,51.85
2022-09-13T22:15:41.455Z,52.18
2022-09-13T22:18:12.312Z,52.95
2022-09-13T22:20:43.521Z,52.66
2022-09-13T22:23:14.387Z,52.86
2022-09-13T22:25:48.547Z,52.99
2022-09-13T22:28:17.867Z,53.38
2022-09-13T22:30:47.359Z,53.09
2022-09-13T22:33:23.294Z,53.71
2022-09-13T22:36:07.847Z,54.41
2022-09-13T22:38:42.752Z,54.62
2022-09-13T22:41:23.354Z,54.40
2022-09-13T22:43:55.200Z,53.84
2022-09-13T22:46:33.173Z,53.78
2022-09-13T22:49:03.541Z,53.02
2022-09-13T22:51:36.384Z,53.48
2022-09-13T22:54:09.436Z,52.98
2022-09-13T22:56:43.862Z,53.37
2022-09-13T22:59:23.230Z,51.98
2022-09-13T23:01:52.868Z,53.30
2022-09-13T23:04:26.215Z,53.79
2022-09-13T23:06:59.001Z,54.82
2022-09-13T23:09:28.773Z,54.36
2022-09-13T23:12:01.479Z,54.54
2022-09-13T23:14:33.083Z,54.23
2022-09-13T23:17:07.315Z,54.57
2022-09-13T23:19:36.991Z,54.54
2022-09-13T23:22:10.294Z,55.02
2022-09-13T23:24:41.451Z,54.95
2022-09-13T23:27:16.626Z,54.75
2022-09-13T23:29:47.368Z,55.33
2022-09-13T23:32:19.365Z,56.18
2022-09-13T23:34:51.607Z,55.36
2022-09-13T23:37:23.328Z,55.05
2022-09-13T23:39:58.830Z,55.13
2022-09-13T23:42:32.973Z,55.19
2022-09-13T23:45:07.781Z,55.30
2022-09-13T23:47:38.769Z,56.27
2022-09-13T23:50:11.376Z,56.64
2022-09-13T23:52:45.624Z,57.34
2022-09-13T23:55:18.592Z,56.13
2022-09-13T23:57:48.918Z,57.06
